sensor_id;sensor_type;location;lat;lon;timestamp;P1;durP1;ratioP1;P2;durP2;ratioP2
40150;SDS011;25866;52.420;10.640;2022-11-15T00:00:43;13.47;;;7.93;;
40150;SDS011;25866;52.420;10.640;2022-11-15T00:03:09;13.27;;;8.27;;
40150;SDS011;25866;52.420;10.640;2022-11-15T00:05:35;11.53;;;8.27;;
40150;SDS011;25866;52.420;10.640;2022-11-15T00:08:01;11.13;;;8.07;;
40150;SDS011;25866;52.420;10.640;2022-11-15T00:10:29;12.90;;;9.37;;
40150;SDS011;25866;52.420;10.640;2022-11-15T00:12:55;12.87;;;8.00;;
40150;SDS011;25866;52.420;10.640;2022-11-15T00:15:21;11.43;;;8.27;;
40150;SDS011;25866;52.420;10.640;2022-11-15T00:17:50;12.17;;;8.33;;
40150;SDS011;25866;52.420;10.640;2022-11-15T00:20:18;12.07;;;8.63;;
40150;SDS011;25866;52.420;10.640;2022-11-15T00:22:44;13.03;;;8.47;;
40150;SDS011;25866;52.420;10.640;2022-11-15T00:25:10;13.27;;;9.30;;
40150;SDS011;25866;52.420;10.640;2022-11-15T00:27:36;13.90;;;8.50;;
40150;SDS011;25866;52.420;10.640;2022-11-15T00:30:01;15.20;;;9.17;;
40150;SDS011;25866;52.420;10.640;2022-11-15T00:32:31;14.47;;;8.93;;
40150;SDS011;25866;52.420;10.640;2022-11-15T00:34:57;12.27;;;8.40;;
40150;SDS011;25866;52.420;10.640;2022-11-15T00:37:23;11.87;;;8.37;;
40150;SDS011;25866;52.420;10.640;2022-11-15T00:39:48;14.40;;;8.87;;
40150;SDS011;25866;52.420;10.640;2022-11-15T00:42:15;13.37;;;8.80;;
40150;SDS011;25866;52.420;10.640;2022-11-15T00:44:41;14.43;;;8.93;;
40150;SDS011;25866;52.420;10.640;2022-11-15T00:47:06;11.57;;;8.13;;
40150;SDS011;25866;52.420;10.640;2022-11-15T00:49:32;15.07;;;8.87;;
40150;SDS011;25866;52.420;10.640;2022-11-15T00:51:58;11.43;;;7.77;;
40150;SDS011;25866;52.420;10.640;2022-11-15T00:54:23;12.03;;;8.23;;
40150;SDS011;25866;52.420;10.640;2022-11-15T00:56:49;12.10;;;7.97;;
40150;SDS011;25866;52.420;10.640;2022-11-15T00:59:15;12.87;;;8.30;;
40150;SDS011;25866;52.420;10.640;2022-11-15T01:01:40;12.27;;;8.67;;
40150;SDS011;25866;52.420;10.640;2022-11-15T01:04:06;11.23;;;8.03;;
40150;SDS011;25866;52.420;10.640;2022-11-15T01:06:32;12.73;;;8.37;;
40150;SDS011;25866;52.420;10.640;2022-11-15T01:08:57;14.20;;;8.60;;
40150;SDS011;25866;52.420;10.640;2022-11-15T01:11:23;11.87;;;7.97;;
40150;SDS011;25866;52.420;10.640;2022-11-15T01:13:49;10.50;;;8.00;;
40150;SDS011;25866;52.420;10.640;2022-11-15T01:16:16;11.50;;;7.83;;
40150;SDS011;25866;52.420;10.640;2022-11-15T01:18:44;13.40;;;8.17;;
40150;SDS011;25866;52.420;10.640;2022-11-15T01:21:11;11.80;;;8.07;;
40150;SDS011;25866;52.420;10.640;2022-11-15T01:23:42;12.80;;;8.77;;
40150;SDS011;25866;52.420;10.640;2022-11-15T01:26:10;13.03;;;8.10;;
40150;SDS011;25866;52.420;10.640;2022-11-15T01:28:38;12.07;;;7.93;;
40150;SDS011;25866;52.420;10.640;2022-11-15T01:31:06;11.07;;;7.67;;
40150;SDS011;25866;52.420;10.640;2022-11-15T01:33:36;10.93;;;7.83;;
40150;SDS011;25866;52.420;10.640;2022-11-15T01:36:05;11.30;;;7.37;;
40150;SDS011;25866;52.420;10.640;2022-11-15T01:38:33;10.70;;;7.30;;
40150;SDS011;25866;52.420;10.640;2022-11-15T01:40:59;12.43;;;8.30;;
40150;SDS011;25866;52.420;10.640;2022-11-15T01:43:29;13.67;;;8.37;;
40150;SDS011;25866;52.420;10.640;2022-11-15T01:48:43;14.23;;;7.97;;
40150;SDS011;25866;52.420;10.640;2022-11-15T01:51:10;12.73;;;7.33;;
40150;SDS011;25866;52.420;10.640;2022-11-15T01:53:39;11.13;;;7.13;;
40150;SDS011;25866;52.420;10.640;2022-11-15T01:56:08;12.13;;;7.23;;
40150;SDS011;25866;52.420;10.640;2022-11-15T01:58:37;10.77;;;7.53;;
40150;SDS011;25866;52.420;10.640;2022-11-15T02:01:03;11.87;;;7.20;;
40150;SDS011;25866;52.420;10.640;2022-11-15T02:03:32;10.43;;;7.80;;
40150;SDS011;25866;52.420;10.640;2022-11-15T02:06:03;11.73;;;7.23;;
40150;SDS011;25866;52.420;10.640;2022-11-15T02:08:30;10.70;;;7.80;;
40150;SDS011;25866;52.420;10.640;2022-11-15T02:10:55;10.20;;;7.60;;
40150;SDS011;25866;52.420;10.640;2022-11-15T02:13:21;10.30;;;6.93;;
40150;SDS011;25866;52.420;10.640;2022-11-15T02:15:52;12.93;;;7.10;;
40150;SDS011;25866;52.420;10.640;2022-11-15T02:18:30;11.17;;;7.33;;
40150;SDS011;25866;52.420;10.640;2022-11-15T02:31:45;11.10;;;7.47;;
40150;SDS011;25866;52.420;10.640;2022-11-15T02:40:06;9.93;;;6.63;;
40150;SDS011;25866;52.420;10.640;2022-11-15T02:42:50;9.87;;;7.07;;
40150;SDS011;25866;52.420;10.640;2022-11-15T02:45:42;11.10;;;7.53;;
40150;SDS011;25866;52.420;10.640;2022-11-15T02:48:13;12.00;;;7.20;;
40150;SDS011;25866;52.420;10.640;2022-11-15T02:50:40;11.23;;;8.27;;
40150;SDS011;25866;52.420;10.640;2022-11-15T02:53:07;10.43;;;7.43;;
40150;SDS011;25866;52.420;10.640;2022-11-15T02:55:34;11.17;;;7.70;;
40150;SDS011;25866;52.420;10.640;2022-11-15T03:06:15;10.60;;;6.70;;
40150;SDS011;25866;52.420;10.640;2022-11-15T03:11:47;9.73;;;6.67;;
40150;SDS011;25866;52.420;10.640;2022-11-15T03:14:21;10.27;;;7.07;;
40150;SDS011;25866;52.420;10.640;2022-11-15T03:19:34;9.57;;;6.83;;
40150;SDS011;25866;52.420;10.640;2022-11-15T03:22:09;11.67;;;7.30;;
40150;SDS011;25866;52.420;10.640;2022-11-15T03:24:40;12.33;;;8.13;;
40150;SDS011;25866;52.420;10.640;2022-11-15T03:27:08;10.53;;;7.87;;
40150;SDS011;25866;52.420;10.640;2022-11-15T03:29:43;10.07;;;7.30;;
40150;SDS011;25866;52.420;10.640;2022-11-15T03:32:14;12.43;;;7.90;;
40150;SDS011;25866;52.420;10.640;2022-11-15T03:34:45;10.53;;;7.40;;
40150;SDS011;25866;52.420;10.640;2022-11-15T03:37:15;12.57;;;8.03;;
40150;SDS011;25866;52.420;10.640;2022-11-15T03:39:42;13.03;;;8.77;;
40150;SDS011;25866;52.420;10.640;2022-11-15T03:42:18;11.97;;;8.47;;
40150;SDS011;25866;52.420;10.640;2022-11-15T03:45:22;11.73;;;8.13;;
40150;SDS011;25866;52.420;10.640;2022-11-15T03:50:57;14.13;;;8.10;;
40150;SDS011;25866;52.420;10.640;2022-11-15T03:53:24;17.13;;;9.00;;
40150;SDS011;25866;52.420;10.640;2022-11-15T03:55:50;15.57;;;8.20;;
40150;SDS011;25866;52.420;10.640;2022-11-15T03:58:16;13.60;;;8.13;;
40150;SDS011;25866;52.420;10.640;2022-11-15T04:00:42;12.17;;;8.37;;
40150;SDS011;25866;52.420;10.640;2022-11-15T04:03:07;15.37;;;8.73;;
40150;SDS011;25866;52.420;10.640;2022-11-15T04:05:34;11.10;;;7.70;;
40150;SDS011;25866;52.420;10.640;2022-11-15T04:08:00;14.80;;;8.27;;
40150;SDS011;25866;52.420;10.640;2022-11-15T04:10:25;14.87;;;8.90;;
40150;SDS011;25866;52.420;10.640;2022-11-15T04:12:51;12.03;;;8.20;;
40150;SDS011;25866;52.420;10.640;2022-11-15T04:15:20;12.97;;;7.47;;
40150;SDS011;25866;52.420;10.640;2022-11-15T04:17:48;11.07;;;7.40;;
40150;SDS011;25866;52.420;10.640;2022-11-15T04:20:17;9.80;;;7.33;;
40150;SDS011;25866;52.420;10.640;2022-11-15T04:23:08;12.67;;;7.20;;
40150;SDS011;25866;52.420;10.640;2022-11-15T04:25:55;9.73;;;6.80;;
40150;SDS011;25866;52.420;10.640;2022-11-15T04:28:23;10.17;;;6.87;;
40150;SDS011;25866;52.420;10.640;2022-11-15T04:30:49;11.83;;;6.87;;
40150;SDS011;25866;52.420;10.640;2022-11-15T04:33:15;9.80;;;6.93;;
40150;SDS011;25866;52.420;10.640;2022-11-15T04:35:41;8.90;;;6.93;;
40150;SDS011;25866;52.420;10.640;2022-11-15T04:38:09;9.97;;;7.40;;
40150;SDS011;25866;52.420;10.640;2022-11-15T04:40:36;9.13;;;6.47;;
40150;SDS011;25866;52.420;10.640;2022-11-15T04:43:02;9.17;;;6.23;;
40150;SDS011;25866;52.420;10.640;2022-11-15T04:45:29;11.27;;;6.77;;
40150;SDS011;25866;52.420;10.640;2022-11-15T04:47:55;12.43;;;7.80;;
40150;SDS011;25866;52.420;10.640;2022-11-15T04:50:21;11.27;;;7.23;;
40150;SDS011;25866;52.420;10.640;2022-11-15T04:52:50;10.00;;;7.07;;
40150;SDS011;25866;52.420;10.640;2022-11-15T04:55:18;10.50;;;7.37;;
40150;SDS011;25866;52.420;10.640;2022-11-15T04:57:44;10.77;;;6.83;;
40150;SDS011;25866;52.420;10.640;2022-11-15T05:00:11;11.57;;;7.10;;
40150;SDS011;25866;52.420;10.640;2022-11-15T05:02:38;9.20;;;6.23;;
40150;SDS011;25866;52.420;10.640;2022-11-15T05:05:30;14.00;;;6.73;;
40150;SDS011;25866;52.420;10.640;2022-11-15T05:07:56;11.67;;;6.83;;
40150;SDS011;25866;52.420;10.640;2022-11-15T05:10:21;10.90;;;7.30;;
40150;SDS011;25866;52.420;10.640;2022-11-15T05:12:47;10.73;;;7.27;;
40150;SDS011;25866;52.420;10.640;2022-11-15T05:15:13;10.43;;;7.30;;
40150;SDS011;25866;52.420;10.640;2022-11-15T05:17:38;10.20;;;7.07;;
40150;SDS011;25866;52.420;10.640;2022-11-15T05:20:04;10.97;;;7.10;;
40150;SDS011;25866;52.420;10.640;2022-11-15T05:22:30;12.73;;;7.83;;
40150;SDS011;25866;52.420;10.640;2022-11-15T05:24:56;13.20;;;7.70;;
40150;SDS011;25866;52.420;10.640;2022-11-15T05:27:22;15.30;;;7.63;;
40150;SDS011;25866;52.420;10.640;2022-11-15T05:29:47;10.53;;;7.53;;
40150;SDS011;25866;52.420;10.640;2022-11-15T05:32:13;12.10;;;7.40;;
40150;SDS011;25866;52.420;10.640;2022-11-15T05:34:39;11.47;;;6.83;;
40150;SDS011;25866;52.420;10.640;2022-11-15T05:37:05;10.97;;;7.63;;
40150;SDS011;25866;52.420;10.640;2022-11-15T05:39:31;15.20;;;7.57;;
40150;SDS011;25866;52.420;10.640;2022-11-15T05:41:59;10.50;;;7.20;;
40150;SDS011;25866;52.420;10.640;2022-11-15T05:44:36;12.23;;;7.53;;
40150;SDS011;25866;52.420;10.640;2022-11-15T05:47:03;10.43;;;7.57;;
40150;SDS011;25866;52.420;10.640;2022-11-15T05:49:33;10.60;;;7.10;;
40150;SDS011;25866;52.420;10.640;2022-11-15T05:52:03;11.80;;;7.17;;
40150;SDS011;25866;52.420;10.640;2022-11-15T05:54:30;11.13;;;7.33;;
40150;SDS011;25866;52.420;10.640;2022-11-15T05:56:57;11.27;;;7.37;;
40150;SDS011;25866;52.420;10.640;2022-11-15T05:59:23;10.13;;;7.40;;
40150;SDS011;25866;52.420;10.640;2022-11-15T06:01:49;11.27;;;7.37;;
40150;SDS011;25866;52.420;10.640;2022-11-15T06:04:15;11.13;;;7.20;;
40150;SDS011;25866;52.420;10.640;2022-11-15T06:06:40;11.23;;;7.00;;
40150;SDS011;25866;52.420;10.640;2022-11-15T06:09:06;8.77;;;6.37;;
40150;SDS011;25866;52.420;10.640;2022-11-15T06:11:32;9.43;;;6.43;;
40150;SDS011;25866;52.420;10.640;2022-11-15T06:13:57;9.10;;;6.00;;
40150;SDS011;25866;52.420;10.640;2022-11-15T06:16:24;10.03;;;6.63;;
40150;SDS011;25866;52.420;10.640;2022-11-15T06:18:50;9.80;;;6.57;;
40150;SDS011;25866;52.420;10.640;2022-11-15T06:21:16;9.57;;;6.60;;
40150;SDS011;25866;52.420;10.640;2022-11-15T06:23:41;9.30;;;6.53;;
40150;SDS011;25866;52.420;10.640;2022-11-15T06:26:07;9.43;;;7.30;;
40150;SDS011;25866;52.420;10.640;2022-11-15T06:28:33;8.60;;;6.30;;
40150;SDS011;25866;52.420;10.640;2022-11-15T06:31:05;10.87;;;6.73;;
40150;SDS011;25866;52.420;10.640;2022-11-15T06:33:34;8.57;;;6.20;;
40150;SDS011;25866;52.420;10.640;2022-11-15T06:36:03;9.73;;;6.80;;
40150;SDS011;25866;52.420;10.640;2022-11-15T06:38:30;11.23;;;6.47;;
40150;SDS011;25866;52.420;10.640;2022-11-15T06:41:03;10.20;;;6.40;;
40150;SDS011;25866;52.420;10.640;2022-11-15T06:43:29;8.77;;;6.20;;
40150;SDS011;25866;52.420;10.640;2022-11-15T06:45:57;10.67;;;6.37;;
40150;SDS011;25866;52.420;10.640;2022-11-15T06:48:24;11.17;;;6.60;;
40150;SDS011;25866;52.420;10.640;2022-11-15T06:50:54;9.67;;;6.63;;
40150;SDS011;25866;52.420;10.640;2022-11-15T06:53:21;11.30;;;6.77;;
40150;SDS011;25866;52.420;10.640;2022-11-15T06:55:48;9.60;;;6.30;;
40150;SDS011;25866;52.420;10.640;2022-11-15T06:58:14;9.60;;;6.43;;
40150;SDS011;25866;52.420;10.640;2022-11-15T07:00:40;9.27;;;6.17;;
40150;SDS011;25866;52.420;10.640;2022-11-15T07:03:06;12.67;;;6.90;;
40150;SDS011;25866;52.420;10.640;2022-11-15T07:05:33;10.50;;;6.43;;
40150;SDS011;25866;52.420;10.640;2022-11-15T07:07:59;11.17;;;6.40;;
40150;SDS011;25866;52.420;10.640;2022-11-15T07:10:25;11.60;;;6.80;;
40150;SDS011;25866;52.420;10.640;2022-11-15T07:12:51;11.63;;;6.73;;
40150;SDS011;25866;52.420;10.640;2022-11-15T07:15:18;15.60;;;7.57;;
40150;SDS011;25866;52.420;10.640;2022-11-15T07:17:45;12.00;;;7.27;;
40150;SDS011;25866;52.420;10.640;2022-11-15T07:20:11;12.27;;;7.17;;
40150;SDS011;25866;52.420;10.640;2022-11-15T07:22:38;12.67;;;7.93;;
40150;SDS011;25866;52.420;10.640;2022-11-15T07:25:05;12.80;;;7.77;;
40150;SDS011;25866;52.420;10.640;2022-11-15T07:27:32;11.80;;;8.03;;
40150;SDS011;25866;52.420;10.640;2022-11-15T07:29:58;12.33;;;7.40;;
40150;SDS011;25866;52.420;10.640;2022-11-15T07:32:24;12.07;;;7.57;;
40150;SDS011;25866;52.420;10.640;2022-11-15T07:34:50;13.00;;;7.43;;
40150;SDS011;25866;52.420;10.640;2022-11-15T07:37:15;11.93;;;7.37;;
40150;SDS011;25866;52.420;10.640;2022-11-15T07:39:42;9.03;;;6.80;;
40150;SDS011;25866;52.420;10.640;2022-11-15T07:42:08;10.10;;;7.00;;
40150;SDS011;25866;52.420;10.640;2022-11-15T07:45:02;11.30;;;6.77;;
40150;SDS011;25866;52.420;10.640;2022-11-15T07:47:28;12.53;;;6.60;;
40150;SDS011;25866;52.420;10.640;2022-11-15T07:49:54;11.53;;;6.53;;
40150;SDS011;25866;52.420;10.640;2022-11-15T07:52:20;9.80;;;6.37;;
40150;SDS011;25866;52.420;10.640;2022-11-15T07:54:46;10.03;;;6.23;;
40150;SDS011;25866;52.420;10.640;2022-11-15T07:57:11;9.10;;;5.57;;
40150;SDS011;25866;52.420;10.640;2022-11-15T07:59:37;8.37;;;5.83;;
40150;SDS011;25866;52.420;10.640;2022-11-15T08:02:03;9.40;;;6.30;;
40150;SDS011;25866;52.420;10.640;2022-11-15T08:04:28;9.70;;;5.90;;
40150;SDS011;25866;52.420;10.640;2022-11-15T08:06:56;8.03;;;5.33;;
40150;SDS011;25866;52.420;10.640;2022-11-15T08:09:22;11.70;;;6.20;;
40150;SDS011;25866;52.420;10.640;2022-11-15T08:11:48;9.70;;;5.73;;
40150;SDS011;25866;52.420;10.640;2022-11-15T08:14:13;9.03;;;5.93;;
40150;SDS011;25866;52.420;10.640;2022-11-15T08:16:39;9.23;;;6.13;;
40150;SDS011;25866;52.420;10.640;2022-11-15T08:19:05;9.82;;;5.55;;
40150;SDS011;25866;52.420;10.640;2022-11-15T08:21:31;11.55;;;6.35;;
40150;SDS011;25866;52.420;10.640;2022-11-15T08:23:56;11.13;;;6.17;;
40150;SDS011;25866;52.420;10.640;2022-11-15T08:26:23;8.23;;;5.33;;
40150;SDS011;25866;52.420;10.640;2022-11-15T08:28:51;8.80;;;5.47;;
40150;SDS011;25866;52.420;10.640;2022-11-15T08:31:17;7.15;;;5.60;;
40150;SDS011;25866;52.420;10.640;2022-11-15T08:33:44;7.45;;;5.70;;
40150;SDS011;25866;52.420;10.640;2022-11-15T08:36:14;9.52;;;6.20;;
40150;SDS011;25866;52.420;10.640;2022-11-15T08:38:41;10.23;;;5.93;;
40150;SDS011;25866;52.420;10.640;2022-11-15T08:41:09;11.43;;;5.88;;
40150;SDS011;25866;52.420;10.640;2022-11-15T08:43:55;7.45;;;5.47;;
40150;SDS011;25866;52.420;10.640;2022-11-15T08:46:20;9.55;;;5.45;;
40150;SDS011;25866;52.420;10.640;2022-11-15T08:48:46;8.07;;;5.50;;
40150;SDS011;25866;52.420;10.640;2022-11-15T08:51:12;10.50;;;5.50;;
40150;SDS011;25866;52.420;10.640;2022-11-15T08:53:38;11.68;;;5.05;;
40150;SDS011;25866;52.420;10.640;2022-11-15T08:56:08;7.55;;;5.20;;
40150;SDS011;25866;52.420;10.640;2022-11-15T08:58:35;8.43;;;5.33;;
40150;SDS011;25866;52.420;10.640;2022-11-15T09:01:03;7.82;;;4.90;;
40150;SDS011;25866;52.420;10.640;2022-11-15T09:03:29;7.07;;;5.00;;
40150;SDS011;25866;52.420;10.640;2022-11-15T09:05:56;6.60;;;5.20;;
40150;SDS011;25866;52.420;10.640;2022-11-15T09:10:56;7.72;;;4.82;;
40150;SDS011;25866;52.420;10.640;2022-11-15T09:13:22;10.82;;;5.00;;
40150;SDS011;25866;52.420;10.640;2022-11-15T09:15:48;8.05;;;4.90;;
40150;SDS011;25866;52.420;10.640;2022-11-15T09:18:14;7.30;;;4.97;;
40150;SDS011;25866;52.420;10.640;2022-11-15T09:20:39;9.52;;;5.75;;
40150;SDS011;25866;52.420;10.640;2022-11-15T09:23:05;9.88;;;5.40;;
40150;SDS011;25866;52.420;10.640;2022-11-15T09:25:31;7.63;;;5.50;;
40150;SDS011;25866;52.420;10.640;2022-11-15T09:27:58;7.78;;;4.93;;
40150;SDS011;25866;52.420;10.640;2022-11-15T09:30:24;7.45;;;5.15;;
40150;SDS011;25866;52.420;10.640;2022-11-15T09:32:50;6.32;;;4.30;;
40150;SDS011;25866;52.420;10.640;2022-11-15T09:35:16;6.57;;;4.78;;
40150;SDS011;25866;52.420;10.640;2022-11-15T09:37:42;7.78;;;4.90;;
40150;SDS011;25866;52.420;10.640;2022-11-15T09:40:09;7.60;;;4.45;;
40150;SDS011;25866;52.420;10.640;2022-11-15T09:42:47;5.93;;;4.43;;
40150;SDS011;25866;52.420;10.640;2022-11-15T09:48:18;8.73;;;4.97;;
40150;SDS011;25866;52.420;10.640;2022-11-15T09:51:08;6.97;;;4.90;;
40150;SDS011;25866;52.420;10.640;2022-11-15T09:53:41;6.72;;;4.78;;
40150;SDS011;25866;52.420;10.640;2022-11-15T09:56:15;7.85;;;5.10;;
40150;SDS011;25866;52.420;10.640;2022-11-15T09:58:53;7.10;;;5.07;;
40150;SDS011;25866;52.420;10.640;2022-11-15T10:01:35;6.85;;;4.50;;
40150;SDS011;25866;52.420;10.640;2022-11-15T10:04:02;7.65;;;4.90;;
40150;SDS011;25866;52.420;10.640;2022-11-15T10:06:28;7.60;;;4.47;;
40150;SDS011;25866;52.420;10.640;2022-11-15T10:08:58;9.27;;;4.85;;
40150;SDS011;25866;52.420;10.640;2022-11-15T10:11:37;9.20;;;4.72;;
40150;SDS011;25866;52.420;10.640;2022-11-15T10:14:15;5.72;;;4.35;;
40150;SDS011;25866;52.420;10.640;2022-11-15T10:19:52;7.38;;;4.65;;
40150;SDS011;25866;52.420;10.640;2022-11-15T10:22:27;7.53;;;4.10;;
40150;SDS011;25866;52.420;10.640;2022-11-15T10:27:28;7.95;;;4.28;;
40150;SDS011;25866;52.420;10.640;2022-11-15T10:29:54;8.00;;;4.15;;
40150;SDS011;25866;52.420;10.640;2022-11-15T10:32:20;5.80;;;4.10;;
40150;SDS011;25866;52.420;10.640;2022-11-15T10:34:47;6.53;;;4.30;;
40150;SDS011;25866;52.420;10.640;2022-11-15T10:37:14;8.02;;;3.97;;
40150;SDS011;25866;52.420;10.640;2022-11-15T10:42:48;4.95;;;4.07;;
40150;SDS011;25866;52.420;10.640;2022-11-15T10:45:33;6.95;;;3.80;;
40150;SDS011;25866;52.420;10.640;2022-11-15T10:48:22;6.82;;;4.20;;
40150;SDS011;25866;52.420;10.640;2022-11-15T10:50:48;5.57;;;3.80;;
40150;SDS011;25866;52.420;10.640;2022-11-15T10:53:24;6.03;;;3.97;;
40150;SDS011;25866;52.420;10.640;2022-11-15T10:56:06;5.28;;;3.50;;
40150;SDS011;25866;52.420;10.640;2022-11-15T11:01:16;10.52;;;4.10;;
40150;SDS011;25866;52.420;10.640;2022-11-15T11:03:45;5.20;;;3.65;;
40150;SDS011;25866;52.420;10.640;2022-11-15T11:06:24;6.60;;;3.75;;
40150;SDS011;25866;52.420;10.640;2022-11-15T11:08:58;5.65;;;3.72;;
40150;SDS011;25866;52.420;10.640;2022-11-15T11:11:28;5.13;;;3.55;;
40150;SDS011;25866;52.420;10.640;2022-11-15T11:16:48;6.25;;;3.47;;
40150;SDS011;25866;52.420;10.640;2022-11-15T11:22:25;7.32;;;2.97;;
40150;SDS011;25866;52.420;10.640;2022-11-15T11:25:22;7.97;;;3.10;;
40150;SDS011;25866;52.420;10.640;2022-11-15T11:30:58;4.50;;;2.83;;
40150;SDS011;25866;52.420;10.640;2022-11-15T11:33:48;4.20;;;2.70;;
40150;SDS011;25866;52.420;10.640;2022-11-15T11:48:44;5.90;;;2.83;;
40150;SDS011;25866;52.420;10.640;2022-11-15T11:54:18;3.28;;;2.92;;
40150;SDS011;25866;52.420;10.640;2022-11-15T11:56:44;5.60;;;2.85;;
40150;SDS011;25866;52.420;10.640;2022-11-15T12:01:53;7.43;;;3.10;;
40150;SDS011;25866;52.420;10.640;2022-11-15T12:04:29;4.10;;;2.90;;
40150;SDS011;25866;52.420;10.640;2022-11-15T12:12:05;4.18;;;2.92;;
40150;SDS011;25866;52.420;10.640;2022-11-15T12:14:49;6.88;;;2.72;;
40150;SDS011;25866;52.420;10.640;2022-11-15T12:17:28;4.82;;;3.03;;
40150;SDS011;25866;52.420;10.640;2022-11-15T12:19:59;3.40;;;2.85;;
40150;SDS011;25866;52.420;10.640;2022-11-15T12:25:16;4.22;;;3.03;;
40150;SDS011;25866;52.420;10.640;2022-11-15T12:28:36;4.22;;;2.55;;
40150;SDS011;25866;52.420;10.640;2022-11-15T12:30:45;4.30;;;2.72;;
40150;SDS011;25866;52.420;10.640;2022-11-15T12:33:45;4.13;;;2.72;;
40150;SDS011;25866;52.420;10.640;2022-11-15T12:41:35;6.32;;;2.78;;
40150;SDS011;25866;52.420;10.640;2022-11-15T12:44:03;3.72;;;2.53;;
40150;SDS011;25866;52.420;10.640;2022-11-15T12:48:57;5.25;;;2.40;;
40150;SDS011;25866;52.420;10.640;2022-11-15T12:57:13;4.35;;;2.40;;
40150;SDS011;25866;52.420;10.640;2022-11-15T13:02:21;7.20;;;3.03;;
40150;SDS011;25866;52.420;10.640;2022-11-15T13:04:52;4.50;;;2.90;;
40150;SDS011;25866;52.420;10.640;2022-11-15T13:10:28;7.45;;;2.80;;
40150;SDS011;25866;52.420;10.640;2022-11-15T13:13:03;3.53;;;2.63;;
40150;SDS011;25866;52.420;10.640;2022-11-15T13:15:34;3.63;;;2.30;;
40150;SDS011;25866;52.420;10.640;2022-11-15T13:21:05;5.00;;;3.00;;
40150;SDS011;25866;52.420;10.640;2022-11-15T13:24:09;4.10;;;2.60;;
40150;SDS011;25866;52.420;10.640;2022-11-15T13:26:38;4.03;;;2.30;;
40150;SDS011;25866;52.420;10.640;2022-11-15T13:29:12;4.00;;;2.70;;
40150;SDS011;25866;52.420;10.640;2022-11-15T13:31:42;4.28;;;2.60;;
40150;SDS011;25866;52.420;10.640;2022-11-15T13:36:51;7.10;;;2.65;;
40150;SDS011;25866;52.420;10.640;2022-11-15T13:39:28;6.85;;;2.50;;
40150;SDS011;25866;52.420;10.640;2022-11-15T13:41:59;3.67;;;2.60;;
40150;SDS011;25866;52.420;10.640;2022-11-15T13:44:34;3.45;;;2.60;;
40150;SDS011;25866;52.420;10.640;2022-11-15T13:47:04;7.72;;;2.63;;
40150;SDS011;25866;52.420;10.640;2022-11-15T13:49:41;3.65;;;2.85;;
40150;SDS011;25866;52.420;10.640;2022-11-15T13:52:08;8.30;;;2.80;;
40150;SDS011;25866;52.420;10.640;2022-11-15T13:55:39;2.90;;;2.60;;
40150;SDS011;25866;52.420;10.640;2022-11-15T13:57:51;6.68;;;3.40;;
40150;SDS011;25866;52.420;10.640;2022-11-15T14:06:07;3.72;;;2.40;;
40150;SDS011;25866;52.420;10.640;2022-11-15T14:08:32;3.47;;;2.17;;
40150;SDS011;25866;52.420;10.640;2022-11-15T14:11:15;3.58;;;2.80;;
40150;SDS011;25866;52.420;10.640;2022-11-15T14:13:59;6.03;;;2.53;;
40150;SDS011;25866;52.420;10.640;2022-11-15T14:16:33;5.18;;;3.22;;
40150;SDS011;25866;52.420;10.640;2022-11-15T14:19:04;4.75;;;3.30;;
40150;SDS011;25866;52.420;10.640;2022-11-15T14:21:31;8.48;;;3.00;;
40150;SDS011;25866;52.420;10.640;2022-11-15T14:26:45;5.78;;;2.95;;
40150;SDS011;25866;52.420;10.640;2022-11-15T14:29:26;5.25;;;2.95;;
40150;SDS011;25866;52.420;10.640;2022-11-15T14:31:53;5.65;;;3.00;;
40150;SDS011;25866;52.420;10.640;2022-11-15T14:34:33;4.60;;;2.80;;
40150;SDS011;25866;52.420;10.640;2022-11-15T14:36:59;6.93;;;2.70;;
40150;SDS011;25866;52.420;10.640;2022-11-15T14:39:26;5.25;;;2.80;;
40150;SDS011;25866;52.420;10.640;2022-11-15T14:41:51;6.07;;;2.80;;
40150;SDS011;25866;52.420;10.640;2022-11-15T14:44:17;10.95;;;3.33;;
40150;SDS011;25866;52.420;10.640;2022-11-15T14:46:45;7.60;;;3.28;;
40150;SDS011;25866;52.420;10.640;2022-11-15T14:49:13;5.13;;;3.42;;
40150;SDS011;25866;52.420;10.640;2022-11-15T14:51:40;4.88;;;3.08;;
40150;SDS011;25866;52.420;10.640;2022-11-15T14:54:09;6.22;;;3.40;;
40150;SDS011;25866;52.420;10.640;2022-11-15T14:56:35;6.30;;;3.35;;
40150;SDS011;25866;52.420;10.640;2022-11-15T14:59:01;5.40;;;3.38;;
40150;SDS011;25866;52.420;10.640;2022-11-15T15:01:27;5.68;;;3.60;;
40150;SDS011;25866;52.420;10.640;2022-11-15T15:03:53;4.45;;;3.65;;
40150;SDS011;25866;52.420;10.640;2022-11-15T15:06:23;6.57;;;3.75;;
40150;SDS011;25866;52.420;10.640;2022-11-15T15:08:49;4.97;;;3.60;;
40150;SDS011;25866;52.420;10.640;2022-11-15T15:11:21;8.23;;;3.78;;
40150;SDS011;25866;52.420;10.640;2022-11-15T15:13:49;6.93;;;4.00;;
40150;SDS011;25866;52.420;10.640;2022-11-15T15:16:15;9.18;;;3.70;;
40150;SDS011;25866;52.420;10.640;2022-11-15T15:18:41;7.35;;;3.80;;
40150;SDS011;25866;52.420;10.640;2022-11-15T15:21:23;5.50;;;3.97;;
40150;SDS011;25866;52.420;10.640;2022-11-15T15:23:51;6.65;;;4.00;;
40150;SDS011;25866;52.420;10.640;2022-11-15T15:26:19;7.97;;;3.80;;
40150;SDS011;25866;52.420;10.640;2022-11-15T15:28:45;8.48;;;3.83;;
40150;SDS011;25866;52.420;10.640;2022-11-15T15:31:17;5.32;;;3.67;;
40150;SDS011;25866;52.420;10.640;2022-11-15T15:33:43;6.63;;;3.90;;
40150;SDS011;25866;52.420;10.640;2022-11-15T15:36:13;6.50;;;3.88;;
40150;SDS011;25866;52.420;10.640;2022-11-15T15:38:41;7.25;;;4.55;;
40150;SDS011;25866;52.420;10.640;2022-11-15T15:41:10;6.18;;;3.92;;
40150;SDS011;25866;52.420;10.640;2022-11-15T15:43:37;9.32;;;4.72;;
40150;SDS011;25866;52.420;10.640;2022-11-15T15:46:03;7.10;;;3.95;;
40150;SDS011;25866;52.420;10.640;2022-11-15T15:48:29;7.60;;;4.25;;
40150;SDS011;25866;52.420;10.640;2022-11-15T15:50:55;7.40;;;4.30;;
40150;SDS011;25866;52.420;10.640;2022-11-15T15:53:21;8.73;;;4.80;;
40150;SDS011;25866;52.420;10.640;2022-11-15T15:55:46;8.40;;;4.55;;
40150;SDS011;25866;52.420;10.640;2022-11-15T15:58:12;7.40;;;4.63;;
40150;SDS011;25866;52.420;10.640;2022-11-15T16:00:38;7.82;;;5.18;;
40150;SDS011;25866;52.420;10.640;2022-11-15T16:03:04;8.05;;;4.60;;
40150;SDS011;25866;52.420;10.640;2022-11-15T16:05:29;6.95;;;4.45;;
40150;SDS011;25866;52.420;10.640;2022-11-15T16:07:55;10.38;;;5.32;;
40150;SDS011;25866;52.420;10.640;2022-11-15T16:10:28;9.80;;;5.35;;
40150;SDS011;25866;52.420;10.640;2022-11-15T16:12:56;13.90;;;5.78;;
40150;SDS011;25866;52.420;10.640;2022-11-15T16:15:24;10.20;;;5.13;;
40150;SDS011;25866;52.420;10.640;2022-11-15T16:17:52;8.70;;;5.57;;
40150;SDS011;25866;52.420;10.640;2022-11-15T16:20:23;7.72;;;5.07;;
40150;SDS011;25866;52.420;10.640;2022-11-15T16:22:54;7.65;;;5.38;;
40150;SDS011;25866;52.420;10.640;2022-11-15T16:25:20;13.10;;;5.57;;
40150;SDS011;25866;52.420;10.640;2022-11-15T16:27:46;9.60;;;5.53;;
40150;SDS011;25866;52.420;10.640;2022-11-15T16:30:16;8.60;;;5.60;;
40150;SDS011;25866;52.420;10.640;2022-11-15T16:32:43;9.43;;;5.50;;
40150;SDS011;25866;52.420;10.640;2022-11-15T16:35:12;9.90;;;6.32;;
40150;SDS011;25866;52.420;10.640;2022-11-15T16:37:39;9.00;;;5.25;;
40150;SDS011;25866;52.420;10.640;2022-11-15T16:42:52;11.60;;;6.88;;
40150;SDS011;25866;52.420;10.640;2022-11-15T16:45:20;12.88;;;5.78;;